»·PEaware :: N6210F KSAC-KMCC

N6210F :: KSAC-KMCC

FLIGHT INFORMATION

Flight Status: Arrived
Operator: Privately registered:
United States
More flights under this callsign
Pilot: Pablo H. (9636)
Aircraft: CESSNA 172 SKYHAWK
(C172)
More flights by this aircraft type
Origin: KSAC Sacramento Executive
United States
Destination: KMCC McClellan
United States
More flights between these airports :: More routes between these airports
Route: SAC MCC
File this flight plan on PilotEdge
Remarks:
Altitude:
(Current/Filed)
3,000ft
Speed:
(Current/Filed)
120kts
Departed: 27-Nov-20 10:55 AM
Arrived: 27-Nov-20 11:57 AM
Distance/Time
Traveled:
10nm/1:02
Distance/Time
To Go:
Arrived

Flight Plot

Page will automatically refresh every two minutes.

Flight plan parsing failed; only flown route is shown


Map Options




Map Legend


Flown Route
Filed Route
Departure Airport
Arrival Airport
Navaid (VOR, NDB)
Fix

Horizontal Profiles

Position Reports

Time Latitude Longitude Heading Altitude Ground
Speed
27-Nov-20 10:41 38.518464 -121.497170 225 23ft 0kts
27-Nov-20 10:42 38.518464 -121.497170 225 23ft 0kts
27-Nov-20 10:43 38.518464 -121.497170 225 23ft 0kts
27-Nov-20 10:44 38.518464 -121.497170 225 23ft 0kts
27-Nov-20 10:45 38.518464 -121.497170 225 23ft 0kts
27-Nov-20 10:46 38.518464 -121.497170 225 23ft 0kts
27-Nov-20 10:47 38.518464 -121.497170 225 23ft 0kts
27-Nov-20 10:48 38.518464 -121.497170 225 23ft 0kts
27-Nov-20 10:49 38.518464 -121.497170 225 23ft 0kts
27-Nov-20 10:50 38.518356 -121.497492 315 23ft 1kts
27-Nov-20 10:51 38.517927 -121.496180 138 23ft 11kts
27-Nov-20 10:52 38.517739 -121.495656 45 24ft 0kts
27-Nov-20 10:53 38.518193 -121.495112 53 23ft 9kts
27-Nov-20 10:54 38.512216 -121.487326 139 251ft 74kts
27-Nov-20 10:55 38.502601 -121.464657 103 1249ft 82kts
27-Nov-20 10:56 38.496348 -121.433599 103 2023ft 107kts
27-Nov-20 10:57 38.489213 -121.397919 103 2834ft 103kts
27-Nov-20 10:58 38.481421 -121.359543 103 2984ft 115kts
27-Nov-20 10:59 38.473921 -121.322500 103 2981ft 103kts
27-Nov-20 11:00 38.485939 -121.301525 330 2978ft 104kts
27-Nov-20 11:01 38.508754 -121.324142 336 2981ft 103kts
27-Nov-20 11:03 38.537048 -121.335387 347 2983ft 111kts
27-Nov-20 11:04 38.567681 -121.344730 348 2983ft 113kts
27-Nov-20 11:05 38.598621 -121.354005 348 2984ft 113kts
27-Nov-20 11:06 38.629547 -121.363276 348 2984ft 113kts
27-Nov-20 11:07 38.660338 -121.372460 348 2985ft 113kts
27-Nov-20 11:08 38.691013 -121.381545 348 2984ft 109kts
27-Nov-20 11:09 38.719939 -121.390093 348 2986ft 105kts
27-Nov-20 11:10 38.748198 -121.398314 350 2987ft 104kts
27-Nov-20 11:11 38.776917 -121.402039 352 2988ft 103kts
27-Nov-20 11:12 38.805279 -121.407665 355 2981ft 105kts
27-Nov-20 11:13 38.830337 -121.395285 48 2987ft 104kts
27-Nov-20 11:14 38.851307 -121.369782 47 2984ft 104kts
27-Nov-20 11:15 38.872084 -121.371380 263 2980ft 105kts
27-Nov-20 11:16 38.850882 -121.396324 199 2918ft 106kts
27-Nov-20 11:17 38.821671 -121.399184 186 2445ft 106kts
27-Nov-20 11:17 38.796967 -121.399984 181 2031ft 108kts
27-Nov-20 11:19 38.762227 -121.400031 181 1559ft 96kts
27-Nov-20 11:19 38.739420 -121.399648 180 1208ft 99kts
27-Nov-20 11:21 38.709553 -121.400038 184 629ft 85kts
27-Nov-20 11:21 38.689080 -121.400448 180 273ft 92kts
27-Nov-20 11:23 38.661229 -121.398926 181 1308ft 90kts
27-Nov-20 11:23 38.662908 -121.414548 24 1987ft 99kts
27-Nov-20 11:24 38.690679 -121.403774 5 2188ft 108kts
27-Nov-20 11:25 38.720831 -121.402240 1 2187ft 108kts
27-Nov-20 11:26 38.751083 -121.401516 1 2187ft 108kts
27-Nov-20 11:27 38.781238 -121.400832 1 2187ft 108kts
27-Nov-20 11:28 38.808960 -121.390525 41 2187ft 108kts
27-Nov-20 11:29 38.832784 -121.368350 354 2182ft 108kts
27-Nov-20 11:30 38.831072 -121.393852 179 2185ft 110kts
27-Nov-20 11:31 38.800739 -121.400320 186 2186ft 111kts
27-Nov-20 11:32 38.798003 -121.375294 9 2183ft 108kts
27-Nov-20 11:33 38.809218 -121.353379 140 2760ft 104kts
27-Nov-20 11:34 38.781024 -121.336800 159 2982ft 113kts
27-Nov-20 11:35 38.751608 -121.323837 162 2982ft 111kts
27-Nov-20 11:36 38.721896 -121.313596 163 2981ft 110kts
27-Nov-20 11:37 38.691284 -121.303170 163 2982ft 120kts
27-Nov-20 11:38 38.658390 -121.291917 163 2979ft 123kts
27-Nov-20 11:39 38.625274 -121.280598 163 2979ft 123kts
27-Nov-20 11:40 38.592269 -121.269318 163 2978ft 122kts
27-Nov-20 11:41 38.559373 -121.258064 163 2977ft 122kts
27-Nov-20 11:42 38.526600 -121.246826 163 2976ft 122kts
27-Nov-20 11:43 38.493794 -121.235713 163 2995ft 125kts
27-Nov-20 11:44 38.460090 -121.224617 163 2996ft 124kts
27-Nov-20 11:45 38.431935 -121.235555 252 2998ft 129kts
27-Nov-20 11:46 38.422537 -121.279917 254 2999ft 129kts
27-Nov-20 11:47 38.428501 -121.319587 324 2965ft 128kts
27-Nov-20 11:48 38.457895 -121.345599 326 2493ft 126kts
27-Nov-20 11:49 38.487335 -121.363788 345 2189ft 107kts
27-Nov-20 11:50 38.515784 -121.373016 359 2210ft 104kts
27-Nov-20 11:51 38.544940 -121.379432 352 2223ft 104kts
27-Nov-20 11:52 38.571992 -121.383138 352 1705ft 94kts
27-Nov-20 11:53 38.597344 -121.389234 350 946ft 92kts
27-Nov-20 11:54 38.622336 -121.395468 345 665ft 90kts
27-Nov-20 11:55 38.647488 -121.400738 357 366ft 76kts
27-Nov-20 11:56 38.659260 -121.400191 47 69ft 20kts
27-Nov-20 11:57 38.659641 -121.399261 86 71ft 0kts
27-Nov-20 11:58 38.660551 -121.395748 59 79ft 0kts
27-Nov-20 11:59 38.660551 -121.395748 59 79ft 0kts
27-Nov-20 12:00 38.660551 -121.395748 59 79ft 0kts
27-Nov-20 12:01 38.660551 -121.395748 59 79ft 0kts
27-Nov-20 12:02 38.660551 -121.395748 59 79ft 0kts
27-Nov-20 12:03 38.660551 -121.395748 59 79ft 0kts
27-Nov-20 12:04 38.660551 -121.395748 59 79ft 0kts
27-Nov-20 12:05 38.660551 -121.395748 59 79ft 0kts
27-Nov-20 12:06 38.660551 -121.395748 59 79ft 0kts
27-Nov-20 12:07 38.660551 -121.395748 59 79ft 0kts
27-Nov-20 12:08 38.660551 -121.395748 59 79ft 0kts
27-Nov-20 12:09 38.660551 -121.395748 59 79ft 0kts
27-Nov-20 12:10 38.660551 -121.395748 59 79ft 0kts

Navigation Log

Ident Type
Flight plan parsing failed, navigation log unavailable